createdAt,value
2022-12-16T00:00:11.525Z,100680.25
2022-12-16T00:02:58.658Z,100656.16
2022-12-16T00:05:45.502Z,100677.16
2022-12-16T00:08:32.621Z,100684.13
2022-12-16T00:11:20.954Z,100654.69
2022-12-16T00:14:08.460Z,100688.69
2022-12-16T00:16:55.373Z,100687.16
2022-12-16T00:19:42.223Z,100683.00
2022-12-16T00:22:29.240Z,100665.56
2022-12-16T00:26:02.467Z,100696.16
2022-12-16T00:28:49.406Z,100693.78
2022-12-16T00:31:38.729Z,100705.91
2022-12-16T00:34:25.903Z,100702.66
2022-12-16T00:37:12.788Z,100700.16
2022-12-16T00:39:59.713Z,100692.53
2022-12-16T00:42:46.604Z,100709.31
2022-12-16T00:45:33.790Z,100715.47
2022-12-16T00:48:20.807Z,100716.56
2022-12-16T00:51:10.532Z,100710.00
2022-12-16T00:53:57.531Z,100546.31
2022-12-16T00:56:44.473Z,100716.41
2022-12-16T00:59:31.299Z,100708.06
2022-12-16T01:02:18.506Z,100707.38
2022-12-16T01:05:05.751Z,100698.75
2022-12-16T01:07:52.675Z,100704.25
2022-12-16T01:10:40.996Z,100673.97
2022-12-16T01:13:27.934Z,100681.88
2022-12-16T01:15:55.243Z,100708.16
2022-12-16T01:18:22.152Z,100710.88
2022-12-16T01:20:49.056Z,100711.81
2022-12-16T01:23:36.331Z,100709.38
2022-12-16T01:26:03.938Z,100708.59
2022-12-16T01:28:30.979Z,100716.38
2022-12-16T01:31:01.733Z,100713.09
2022-12-16T01:33:32.896Z,100718.28
2022-12-16T01:36:02.387Z,100710.47
2022-12-16T01:38:29.937Z,100720.16
2022-12-16T01:40:57.041Z,100717.31
2022-12-16T01:43:30.970Z,100735.63
2022-12-16T01:46:24.152Z,100739.13
2022-12-16T01:48:54.259Z,100732.34
2022-12-16T01:51:28.766Z,100728.00
2022-12-16T01:54:01.550Z,100725.66
2022-12-16T01:56:32.489Z,100703.72
2022-12-16T01:59:00.726Z,100726.44
2022-12-16T02:01:28.105Z,100745.50
2022-12-16T02:03:58.887Z,100709.13
2022-12-16T02:06:25.786Z,100744.88
2022-12-16T02:08:56.060Z,100732.00
2022-12-16T02:12:01.455Z,100541.97
2022-12-16T02:14:54.110Z,100671.50
2022-12-16T02:17:37.442Z,100756.44
2022-12-16T02:20:10.253Z,100762.47
2022-12-16T02:23:37.059Z,100764.28
2022-12-16T02:26:54.646Z,100754.13
2022-12-16T02:29:44.432Z,100767.91
2022-12-16T02:33:05.907Z,100765.41
2022-12-16T02:36:22.023Z,100768.91
2022-12-16T02:39:37.221Z,100775.81
2022-12-16T02:42:33.641Z,100781.03
2022-12-16T02:45:26.016Z,100778.53
2022-12-16T02:48:13.339Z,100782.13
2022-12-16T02:51:05.622Z,100783.88
2022-12-16T02:53:57.081Z,100775.22
2022-12-16T02:57:04.927Z,100788.31
2022-12-16T03:00:22.278Z,100793.44
2022-12-16T03:03:40.102Z,100796.94
2022-12-16T03:06:28.999Z,100794.38
2022-12-16T03:09:20.131Z,100803.81
2022-12-16T03:12:08.502Z,100807.09
2022-12-16T03:14:58.809Z,100798.63
2022-12-16T03:17:47.859Z,100800.34
2022-12-16T03:20:43.499Z,100801.19
2022-12-16T03:23:35.995Z,100799.50
2022-12-16T03:26:28.499Z,100808.00
2022-12-16T03:29:41.307Z,100812.28
2022-12-16T03:32:38.229Z,100821.66
2022-12-16T03:35:50.846Z,100826.78
2022-12-16T03:38:40.255Z,100818.22
2022-12-16T03:41:28.561Z,100779.63
2022-12-16T03:44:16.340Z,100831.97
2022-12-16T03:47:03.365Z,100837.16
2022-12-16T03:49:50.303Z,100842.34
2022-12-16T03:52:37.352Z,100836.38
2022-12-16T03:55:12.562Z,100833.03
2022-12-16T03:57:39.726Z,100836.50
2022-12-16T04:00:07.474Z,100830.47
2022-12-16T04:02:38.808Z,100815.53
2022-12-16T04:05:07.072Z,100846.91
2022-12-16T04:07:34.019Z,100848.69
2022-12-16T04:10:00.927Z,100713.44
2022-12-16T04:12:46.478Z,100840.94
2022-12-16T04:15:33.278Z,100848.84
2022-12-16T04:18:19.540Z,100843.69
2022-12-16T04:21:11.757Z,100861.72
2022-12-16T04:24:06.199Z,100849.47
2022-12-16T04:26:53.212Z,100832.75
2022-12-16T04:29:20.446Z,100882.31
2022-12-16T04:31:47.475Z,100878.84
2022-12-16T04:34:27.012Z,100882.38
2022-12-16T04:37:19.887Z,100884.97
2022-12-16T04:40:06.279Z,100794.28
2022-12-16T04:42:52.317Z,100885.88
2022-12-16T04:45:38.209Z,100706.91
2022-12-16T04:48:23.882Z,100896.97
2022-12-16T04:51:09.400Z,100908.13
2022-12-16T04:53:54.985Z,100897.81
2022-12-16T04:56:40.282Z,100902.94
2022-12-16T04:59:25.886Z,100897.66
2022-12-16T05:02:12.207Z,100899.50
2022-12-16T05:04:58.026Z,100900.38
2022-12-16T05:07:43.778Z,100907.25
2022-12-16T05:10:29.257Z,100909.78
2022-12-16T05:13:15.013Z,100912.38
2022-12-16T05:16:00.784Z,100900.00
2022-12-16T05:18:46.704Z,100916.53
2022-12-16T05:21:32.205Z,100931.13
2022-12-16T05:24:17.919Z,100938.84
2022-12-16T05:27:03.479Z,100945.66
2022-12-16T05:29:49.308Z,100953.31
2022-12-16T05:32:34.784Z,100948.09
2022-12-16T05:35:20.350Z,100941.03
2022-12-16T05:38:06.013Z,100972.78
2022-12-16T05:40:51.658Z,100948.84
2022-12-16T05:43:37.266Z,100949.56
2022-12-16T05:46:23.039Z,100952.09
2022-12-16T05:49:08.557Z,100950.28
2022-12-16T05:51:54.439Z,100935.09
2022-12-16T05:54:39.739Z,100964.63
2022-12-16T05:57:25.690Z,100830.69
2022-12-16T06:00:12.931Z,100981.59
2022-12-16T06:02:58.628Z,100975.00
2022-12-16T06:05:44.138Z,100984.78
2022-12-16T06:08:30.199Z,100940.75
2022-12-16T06:11:15.772Z,100989.69
2022-12-16T06:14:01.639Z,100998.09
2022-12-16T06:16:46.897Z,101003.94
2022-12-16T06:19:32.828Z,101017.56
2022-12-16T06:22:18.241Z,100855.81
2022-12-16T06:25:03.856Z,101013.88
2022-12-16T06:27:49.410Z,100968.34
2022-12-16T06:30:35.372Z,100985.72
2022-12-16T06:33:20.643Z,101005.81
2022-12-16T06:36:06.509Z,101013.38
2022-12-16T06:38:52.270Z,101015.66
2022-12-16T06:41:38.181Z,101019.97
2022-12-16T06:44:23.724Z,101015.34
2022-12-16T06:47:09.128Z,101028.38
2022-12-16T06:49:54.620Z,101030.97
2022-12-16T06:52:40.115Z,101017.66
2022-12-16T06:55:25.901Z,101030.72
2022-12-16T06:58:17.810Z,101037.53
2022-12-16T07:01:03.817Z,100980.50
2022-12-16T07:03:49.503Z,101047.78
2022-12-16T07:06:35.428Z,101056.34
2022-12-16T07:09:21.558Z,101061.47
2022-12-16T07:12:07.121Z,101063.22
2022-12-16T07:14:53.202Z,101063.97
2022-12-16T07:17:38.971Z,101029.59
2022-12-16T07:20:25.418Z,101013.84
2022-12-16T07:23:19.095Z,101079.22
2022-12-16T07:26:05.563Z,101088.59
2022-12-16T07:28:51.167Z,101098.00
2022-12-16T07:31:37.167Z,101063.09
2022-12-16T07:34:22.652Z,101085.00
2022-12-16T07:37:08.436Z,101081.31
2022-12-16T07:39:55.311Z,101041.44
2022-12-16T07:42:42.534Z,101102.41
2022-12-16T07:45:29.260Z,101113.59
2022-12-16T07:48:15.222Z,101118.72
2022-12-16T07:51:00.917Z,101115.22
2022-12-16T07:53:47.010Z,101115.97
2022-12-16T07:56:32.995Z,101102.97
2022-12-16T07:59:18.575Z,101114.97
2022-12-16T08:02:04.187Z,101111.47
2022-12-16T08:04:49.797Z,101119.88
2022-12-16T08:07:35.517Z,101124.94
2022-12-16T08:10:20.832Z,101127.44
2022-12-16T08:13:06.376Z,101124.81
2022-12-16T08:15:51.909Z,101129.03
2022-12-16T08:18:38.513Z,101127.25
2022-12-16T08:21:24.369Z,101090.41
2022-12-16T08:24:10.061Z,101116.47
2022-12-16T08:26:55.717Z,101133.91
2022-12-16T08:29:45.366Z,101132.09
2022-12-16T08:32:32.383Z,101138.13
2022-12-16T08:35:19.574Z,101127.41
2022-12-16T08:38:12.069Z,101135.44
2022-12-16T08:41:01.481Z,101141.41
2022-12-16T08:43:50.544Z,101134.53
2022-12-16T08:46:38.620Z,101021.19
2022-12-16T08:49:24.767Z,101062.31
2022-12-16T08:52:10.532Z,101145.19
2022-12-16T08:54:56.508Z,101158.34
2022-12-16T08:57:41.975Z,101158.28
2022-12-16T09:00:28.647Z,101129.50
2022-12-16T09:03:15.951Z,101160.03
2022-12-16T09:06:02.428Z,101061.69
2022-12-16T09:08:48.099Z,101164.25
2022-12-16T09:11:33.859Z,101157.13
2022-12-16T09:14:19.503Z,101169.38
2022-12-16T09:17:05.075Z,101179.63
2022-12-16T09:19:50.248Z,101171.75
2022-12-16T09:22:36.803Z,101180.50
2022-12-16T09:25:22.432Z,101177.94
2022-12-16T09:28:08.480Z,101171.94
2022-12-16T09:30:55.653Z,101175.19
2022-12-16T09:33:41.561Z,101166.81
2022-12-16T09:36:27.670Z,101148.06
2022-12-16T09:39:13.480Z,101173.66
2022-12-16T09:42:07.176Z,101129.69
2022-12-16T09:45:14.748Z,101175.19
2022-12-16T09:48:19.940Z,101111.41
2022-12-16T09:51:05.722Z,101176.00
2022-12-16T09:53:55.355Z,101034.09
2022-12-16T09:56:48.764Z,101191.25
2022-12-16T09:59:38.816Z,101193.53
2022-12-16T10:02:31.076Z,101193.44
2022-12-16T10:05:19.823Z,101190.91
2022-12-16T10:08:19.073Z,101193.44
2022-12-16T10:11:19.417Z,101198.66
2022-12-16T10:14:17.460Z,101196.16
2022-12-16T10:17:31.413Z,101198.78
2022-12-16T10:20:28.479Z,101195.41
2022-12-16T10:23:37.697Z,101190.34
2022-12-16T10:26:31.701Z,101191.25
2022-12-16T10:29:26.179Z,101200.66
2022-12-16T10:32:11.710Z,101135.50
2022-12-16T10:34:58.537Z,101202.41
2022-12-16T10:37:52.295Z,101207.53
2022-12-16T10:40:43.915Z,101204.19
2022-12-16T10:43:38.696Z,101202.47
2022-12-16T10:46:31.393Z,101186.41
2022-12-16T10:49:17.209Z,101216.72
2022-12-16T10:52:08.198Z,101153.56
2022-12-16T10:55:03.130Z,101213.06
2022-12-16T10:58:04.279Z,101234.09
2022-12-16T11:01:16.424Z,101241.78
2022-12-16T11:04:01.956Z,101236.72
2022-12-16T11:07:00.614Z,101243.59
2022-12-16T11:09:51.380Z,101251.28
2022-12-16T11:12:47.429Z,101253.84
2022-12-16T11:15:41.935Z,101257.28
2022-12-16T11:18:32.410Z,101247.94
2022-12-16T11:21:29.965Z,101233.34
2022-12-16T11:24:34.657Z,101247.13
2022-12-16T11:27:31.792Z,101241.63
2022-12-16T11:30:22.914Z,101184.50
2022-12-16T11:33:12.901Z,101198.00
2022-12-16T11:36:06.773Z,101217.56
2022-12-16T11:39:01.696Z,101252.31
2022-12-16T11:41:53.043Z,101254.88
2022-12-16T11:44:48.586Z,101257.34
2022-12-16T11:47:42.094Z,101236.31
2022-12-16T11:50:33.266Z,101250.69
2022-12-16T11:53:19.983Z,101260.94
2022-12-16T11:56:15.746Z,101154.03
2022-12-16T11:59:09.540Z,101250.34
2022-12-16T12:02:21.668Z,101259.91
2022-12-16T12:05:09.036Z,101231.72
2022-12-16T12:08:03.322Z,101287.81
2022-12-16T12:11:07.589Z,101291.28
2022-12-16T12:14:09.523Z,101286.16
2022-12-16T12:17:16.920Z,101284.56
2022-12-16T12:20:16.734Z,101289.81
2022-12-16T12:23:02.670Z,101284.50
2022-12-16T12:25:54.740Z,101275.78
2022-12-16T12:28:46.408Z,101293.72
2022-12-16T12:31:51.853Z,101292.53
2022-12-16T12:34:49.257Z,101305.06
2022-12-16T12:37:48.067Z,101305.59
2022-12-16T12:40:55.743Z,101299.53
2022-12-16T12:43:44.254Z,101302.97
2022-12-16T12:46:40.136Z,101287.47
2022-12-16T12:49:59.955Z,101295.50
2022-12-16T12:53:07.492Z,101286.22
2022-12-16T12:56:12.231Z,101280.28
2022-12-16T12:58:59.021Z,101282.91
2022-12-16T13:01:50.279Z,101256.59
2022-12-16T13:04:40.200Z,101291.47
2022-12-16T13:07:26.718Z,101294.97
2022-12-16T13:10:33.009Z,101223.91
2022-12-16T13:13:34.415Z,101291.56
2022-12-16T13:16:29.750Z,101305.22
2022-12-16T13:19:50.416Z,101300.97
2022-12-16T13:22:56.221Z,101270.41
2022-12-16T13:26:22.693Z,101305.13
2022-12-16T13:29:34.754Z,101293.47
2022-12-16T13:32:22.934Z,101313.63
2022-12-16T13:35:35.410Z,101323.81
2022-12-16T13:38:23.859Z,101323.81
2022-12-16T13:41:18.998Z,101295.88
2022-12-16T13:44:11.792Z,101316.13
2022-12-16T13:47:03.836Z,101315.63
2022-12-16T13:49:55.080Z,101330.63
2022-12-16T13:53:10.852Z,101309.47
2022-12-16T13:56:11.038Z,101296.09
2022-12-16T13:59:04.776Z,101335.59
2022-12-16T14:02:15.898Z,101310.06
2022-12-16T14:05:11.679Z,101342.34
2022-12-16T14:07:59.369Z,101336.41
2022-12-16T14:10:55.221Z,101348.31
2022-12-16T14:14:01.864Z,101214.09
2022-12-16T14:17:12.719Z,101336.41
2022-12-16T14:20:18.099Z,101345.78
2022-12-16T14:23:55.719Z,101358.56
2022-12-16T14:26:38.662Z,101357.72
2022-12-16T14:29:43.518Z,101349.16
2022-12-16T14:32:49.373Z,101361.06
2022-12-16T14:35:36.711Z,101374.75
2022-12-16T14:38:44.007Z,101384.13
2022-12-16T14:41:34.633Z,101378.13
2022-12-16T14:44:22.170Z,101320.16
2022-12-16T14:47:09.794Z,101381.56
2022-12-16T14:50:06.943Z,101382.38
2022-12-16T14:52:52.596Z,101384.13
2022-12-16T14:55:49.955Z,101386.69
2022-12-16T14:58:38.534Z,101386.59
2022-12-16T15:01:34.086Z,101297.75
2022-12-16T15:04:23.636Z,101389.16
2022-12-16T15:07:13.343Z,101376.81
2022-12-16T15:10:02.991Z,101391.44
2022-12-16T15:12:55.391Z,101409.72
2022-12-16T15:15:47.448Z,101408.94
2022-12-16T15:18:43.444Z,101382.50
2022-12-16T15:21:29.227Z,101410.31
2022-12-16T15:24:15.141Z,101408.78
2022-12-16T15:27:03.760Z,101253.16
2022-12-16T15:29:53.778Z,101416.41
2022-12-16T15:32:53.654Z,101412.00
2022-12-16T15:35:52.814Z,101422.38
2022-12-16T15:38:50.386Z,101417.19
2022-12-16T15:41:38.996Z,101319.50
2022-12-16T15:44:32.073Z,101423.13
2022-12-16T15:47:17.608Z,101419.69
2022-12-16T15:50:06.118Z,101423.72
2022-12-16T15:52:56.926Z,101432.47
2022-12-16T15:55:57.046Z,101423.06
2022-12-16T15:58:49.599Z,101428.19
2022-12-16T16:01:39.207Z,101431.56
2022-12-16T16:04:47.909Z,101435.72
2022-12-16T16:07:41.379Z,101434.03
2022-12-16T16:10:36.882Z,101433.88
2022-12-16T16:13:22.936Z,101359.31
2022-12-16T16:16:08.970Z,101425.22
2022-12-16T16:18:54.355Z,101219.56
2022-12-16T16:21:40.890Z,101426.59
2022-12-16T16:24:26.492Z,101433.25
2022-12-16T16:27:18.186Z,101441.66
2022-12-16T16:30:04.177Z,101436.47
2022-12-16T16:32:49.925Z,101437.28
2022-12-16T16:35:35.323Z,101444.88
2022-12-16T16:38:21.278Z,101445.66
2022-12-16T16:41:06.805Z,101457.69
2022-12-16T16:43:52.331Z,101466.16
2022-12-16T16:46:57.057Z,101469.50
2022-12-16T16:49:49.998Z,101473.75
2022-12-16T16:52:38.158Z,101469.44
2022-12-16T16:55:25.267Z,101471.91
2022-12-16T16:58:10.824Z,101381.34
2022-12-16T17:00:56.388Z,101467.53
2022-12-16T17:03:42.737Z,101468.31
2022-12-16T17:06:28.668Z,101467.38
2022-12-16T17:09:14.131Z,101475.84
2022-12-16T17:12:00.142Z,101476.72
2022-12-16T17:14:45.700Z,101477.34
2022-12-16T17:17:31.633Z,101476.50
2022-12-16T17:20:16.809Z,101509.69
2022-12-16T17:23:02.530Z,101475.44
2022-12-16T17:25:48.152Z,101482.16
2022-12-16T17:28:34.127Z,101473.63
2022-12-16T17:31:19.850Z,101478.47
2022-12-16T17:34:05.591Z,101477.03
2022-12-16T17:36:50.799Z,101475.44
2022-12-16T17:39:56.575Z,101472.81
2022-12-16T17:42:46.441Z,101470.34
2022-12-16T17:45:32.505Z,101487.78
2022-12-16T17:48:18.194Z,101426.44
2022-12-16T17:51:04.041Z,101477.63
2022-12-16T17:53:54.554Z,101477.63
2022-12-16T17:56:42.634Z,101469.94
2022-12-16T17:59:28.342Z,101468.25
2022-12-16T18:02:13.980Z,101465.13
2022-12-16T18:04:59.379Z,101481.78
2022-12-16T18:07:44.907Z,101478.31
2022-12-16T18:10:30.621Z,101449.25
2022-12-16T18:13:16.414Z,101473.03
2022-12-16T18:16:01.588Z,101469.16
2022-12-16T18:18:48.980Z,101478.97
2022-12-16T18:21:34.691Z,101472.72
2022-12-16T18:24:25.580Z,101434.09
2022-12-16T18:27:11.607Z,101474.31
2022-12-16T18:29:57.566Z,101474.19
2022-12-16T18:32:43.021Z,101398.47
2022-12-16T18:35:28.892Z,101472.28
2022-12-16T18:38:16.751Z,101479.00
2022-12-16T18:41:02.588Z,101431.38
2022-12-16T18:43:48.496Z,101458.38
2022-12-16T18:46:34.475Z,101475.97
2022-12-16T18:49:19.590Z,101476.44
2022-12-16T18:52:05.281Z,101491.97
2022-12-16T18:54:50.791Z,101513.13
2022-12-16T18:57:39.622Z,101503.63
2022-12-16T19:00:26.203Z,101449.16
2022-12-16T19:03:12.253Z,101492.81
2022-12-16T19:05:57.758Z,101495.22
2022-12-16T19:08:43.624Z,101508.09
2022-12-16T19:11:28.792Z,101508.81
2022-12-16T19:14:15.124Z,101510.41
2022-12-16T19:17:00.427Z,101516.25
2022-12-16T19:19:45.947Z,101506.69
2022-12-16T19:22:31.644Z,101509.97
2022-12-16T19:25:17.511Z,101508.94
2022-12-16T19:28:06.030Z,101515.72
2022-12-16T19:30:51.768Z,101522.34
2022-12-16T19:33:37.211Z,101481.06
2022-12-16T19:36:22.770Z,101513.63
2022-12-16T19:39:08.382Z,101521.75
2022-12-16T19:41:55.186Z,101471.66
2022-12-16T19:44:42.160Z,101524.31
2022-12-16T19:47:27.622Z,101542.13
2022-12-16T19:50:13.243Z,101540.09
2022-12-16T19:52:58.949Z,101549.53
2022-12-16T19:55:44.673Z,101413.69
2022-12-16T19:58:30.214Z,101527.97
2022-12-16T20:01:15.599Z,101526.13
2022-12-16T20:04:01.286Z,101567.78
2022-12-16T20:06:46.961Z,101557.47
2022-12-16T20:09:33.092Z,101553.94
2022-12-16T20:12:18.952Z,101489.63
2022-12-16T20:15:04.932Z,101484.81
2022-12-16T20:17:50.336Z,101548.47
2022-12-16T20:20:35.884Z,101548.41
2022-12-16T20:23:21.570Z,101530.53
2022-12-16T20:26:15.151Z,101510.53
2022-12-16T20:29:01.381Z,101472.75
2022-12-16T20:31:47.929Z,101501.69
2022-12-16T20:34:34.176Z,101529.00
2022-12-16T20:37:19.703Z,101555.69
2022-12-16T20:40:05.869Z,101566.13
2022-12-16T20:42:51.517Z,101583.13
2022-12-16T20:45:39.032Z,101501.00
2022-12-16T20:48:25.542Z,101595.81
2022-12-16T20:51:19.706Z,101601.75
2022-12-16T20:54:12.178Z,101603.41
2022-12-16T20:56:57.931Z,101510.31
2022-12-16T20:59:43.617Z,101572.94
2022-12-16T21:02:36.010Z,101593.81
2022-12-16T21:05:22.014Z,101596.28
2022-12-16T21:08:07.666Z,101591.78
2022-12-16T21:10:56.239Z,101592.66
2022-12-16T21:14:02.195Z,101582.19
2022-12-16T21:16:47.611Z,101596.69
2022-12-16T21:19:35.934Z,101603.41
2022-12-16T21:22:21.739Z,101604.19
2022-12-16T21:25:07.391Z,101609.19
2022-12-16T21:27:54.129Z,101612.66
2022-12-16T21:30:41.031Z,101605.44
2022-12-16T21:33:34.639Z,101623.56
2022-12-16T21:36:20.356Z,101626.03
2022-12-16T21:39:06.047Z,101630.16
2022-12-16T21:41:51.812Z,101650.59
2022-12-16T21:44:37.567Z,101627.59
2022-12-16T21:47:23.054Z,101630.06
2022-12-16T21:50:09.177Z,101592.16
2022-12-16T21:52:55.071Z,101539.81
2022-12-16T21:55:42.192Z,101624.88
2022-12-16T21:58:31.308Z,101582.22
2022-12-16T22:01:18.068Z,101629.88
2022-12-16T22:04:04.367Z,101579.38
2022-12-16T22:06:52.227Z,101608.81
2022-12-16T22:09:39.555Z,101614.03
2022-12-16T22:12:25.041Z,101623.63
2022-12-16T22:15:10.531Z,101625.22
2022-12-16T22:21:02.048Z,101582.44
2022-12-16T22:23:48.839Z,101635.91
2022-12-16T22:26:34.283Z,101629.81
2022-12-16T22:29:20.183Z,101623.88
2022-12-16T22:32:05.362Z,101620.34
2022-12-16T22:34:50.768Z,101623.59
2022-12-16T22:37:36.391Z,101632.09
2022-12-16T22:40:22.247Z,101628.59
2022-12-16T22:43:07.663Z,101631.06
2022-12-16T22:45:53.539Z,101629.28
2022-12-16T22:48:41.944Z,101633.53
2022-12-16T22:51:35.567Z,101637.63
2022-12-16T22:54:21.066Z,101637.56
2022-12-16T22:57:06.764Z,101641.75
2022-12-16T22:59:52.205Z,101539.22
2022-12-16T23:02:40.918Z,101610.41
2022-12-16T23:05:27.965Z,101581.03
2022-12-16T23:08:18.923Z,101630.13
2022-12-16T23:11:12.915Z,101582.31
2022-12-16T23:13:58.595Z,101643.84
2022-12-16T23:16:44.174Z,101664.16
2022-12-16T23:19:29.700Z,101539.31
2022-12-16T23:22:15.415Z,101648.75
2022-12-16T23:25:01.211Z,101646.13
2022-12-16T23:27:46.932Z,101646.91
2022-12-16T23:30:32.896Z,101649.38
2022-12-16T23:33:21.526Z,101645.94
2022-12-16T23:36:07.299Z,101635.16
2022-12-16T23:38:53.360Z,101637.00
2022-12-16T23:41:39.014Z,101642.28
2022-12-16T23:44:24.393Z,101654.09
2022-12-16T23:47:09.924Z,101638.41
2022-12-16T23:49:56.555Z,101494.56
2022-12-16T23:52:42.359Z,101648.72
2022-12-16T23:55:28.354Z,101641.81
2022-12-16T23:58:18.524Z,101601.81
